Decoded Metar for KPBF (PINE BLUFF in AR, USA) (IATA:PBF) | Meteo·Mobile Aviation Weather
aviador You're here:

KPBF Decoded Metar

PINE BLUFF in AR, USA
Report Time2019-07-22 14:53:00
UTC Time2019-07-22 15:49:44
Flight Rules vfr VFR
Wind300° at 09 kt
W.Decomp.*RWY 36: 4.2 kt HW 7.9 kt LCW
Visibility9999 m
Phenomena:N/A
Clouds:N/A
Expected CloudBase > 2,800 ft AGL from Temp-Dew spread
CeilingNone
Temp29°C (ISA +14)
Dew Point22°C (66% RH)
Heat Index32.0°C
QNH1015 hPa
Density Alt2,139 ft
Elevation203 ft
Report Wrong Elevation
Raw Report
KPBF 221453Z AUTO 30009KT 10SM CLR 29/22 A2997 RMK AO2 SLP146
T02940222 55001=

Extra information for KPBF:More info

Metar Taf Metar & Taf Last 4 Metars F.Rules Stats Wind Profile Meteogram Temp Stats Airport Information Weather charts Add Link Nearby VenuesMetar ALERT Operation Metar Decoded Social comments

AIRNAV info for KPBF